Aviation Digital Data Service (ADDS)

Output produced by METARs form (0414 UTC 26 April 2019)
found at http://www.aviationweather.gov/metar/data/
 
METAR text: SVMI 260400Z 09002KT 9999 BKN016 20/18 Q1008
Conditions at: SVMI (CARACAS/S. BOLIV, VE) observed 0400 UTC 26 April 2019
Temperature: 20.0°C (68°F)
Dewpoint: 18.0°C (64°F) [RH = 88%]
Pressure (altimeter): 29.76 inches Hg (1008.0 mb)
Winds: from the E (90 degrees) at 2 MPH (2 knots; 1.0 m/s)
Visibility: 6 or more miles (10+ km)
Ceiling: 1600 feet AGL
Clouds: broken clouds at 1600 feet AGL
Weather: no significant weather observed at this time

METAR text: SVMI 260300Z 00000KT 9999 BKN016 20/19 Q1009
Conditions at: SVMI (CARACAS/S. BOLIV, VE) observed 0300 UTC 26 April 2019
Temperature: 20.0°C (68°F)
Dewpoint: 19.0°C (66°F) [RH = 94%]
Pressure (altimeter): 29.79 inches Hg (1009.0 mb)
Winds: calm
Visibility: 6 or more miles (10+ km)
Ceiling: 1600 feet AGL
Clouds: broken clouds at 1600 feet AGL
Weather: no significant weather observed at this time

METAR text: SVMI 260200Z 00000KT 9999 BKN016 20/19 Q1009
Conditions at: SVMI (CARACAS/S. BOLIV, VE) observed 0200 UTC 26 April 2019
Temperature: 20.0°C (68°F)
Dewpoint: 19.0°C (66°F) [RH = 94%]
Pressure (altimeter): 29.79 inches Hg (1009.0 mb)
Winds: calm
Visibility: 6 or more miles (10+ km)
Ceiling: 1600 feet AGL
Clouds: broken clouds at 1600 feet AGL
Weather: no significant weather observed at this time

METAR text: SVMI 260100Z 00000KT 9999 BKN016 21/20 Q1010
Conditions at: SVMI (CARACAS/S. BOLIV, VE) observed 0100 UTC 26 April 2019
Temperature: 21.0°C (70°F)
Dewpoint: 20.0°C (68°F) [RH = 94%]
Pressure (altimeter): 29.82 inches Hg (1010.0 mb)
Winds: calm
Visibility: 6 or more miles (10+ km)
Ceiling: 1600 feet AGL
Clouds: broken clouds at 1600 feet AGL
Weather: no significant weather observed at this time

METAR text: SVMI 260000Z 07002KT 9999 BKN016 22/21 Q1010
Conditions at: SVMI (CARACAS/S. BOLIV, VE) observed 0000 UTC 26 April 2019
Temperature: 22.0°C (72°F)
Dewpoint: 21.0°C (70°F) [RH = 94%]
Pressure (altimeter): 29.82 inches Hg (1010.0 mb)
Winds: from the ENE (70 degrees) at 2 MPH (2 knots; 1.0 m/s)
Visibility: 6 or more miles (10+ km)
Ceiling: 1600 feet AGL
Clouds: broken clouds at 1600 feet AGL
Weather: no significant weather observed at this time

METAR text: SVMI 252300Z 00000KT 9999 BKN016 23/22 Q1009
Conditions at: SVMI (CARACAS/S. BOLIV, VE) observed 2300 UTC 25 April 2019
Temperature: 23.0°C (73°F)
Dewpoint: 22.0°C (72°F) [RH = 94%]
Pressure (altimeter): 29.79 inches Hg (1009.0 mb)
Winds: calm
Visibility: 6 or more miles (10+ km)
Ceiling: 1600 feet AGL
Clouds: broken clouds at 1600 feet AGL
Weather: no significant weather observed at this time

METAR text: SVMI 252200Z 00000KT 9999 BKN016 23/22 Q1009
Conditions at: SVMI (CARACAS/S. BOLIV, VE) observed 2200 UTC 25 April 2019
Temperature: 23.0°C (73°F)
Dewpoint: 22.0°C (72°F) [RH = 94%]
Pressure (altimeter): 29.79 inches Hg (1009.0 mb)
Winds: calm
Visibility: 6 or more miles (10+ km)
Ceiling: 1600 feet AGL
Clouds: broken clouds at 1600 feet AGL
Weather: no significant weather observed at this time

METAR text: SVMI 252100Z 11002KT 9999 BKN016 23/22 Q1008
Conditions at: SVMI (CARACAS/S. BOLIV, VE) observed 2100 UTC 25 April 2019
Temperature: 23.0°C (73°F)
Dewpoint: 22.0°C (72°F) [RH = 94%]
Pressure (altimeter): 29.76 inches Hg (1008.0 mb)
Winds: from the ESE (110 degrees) at 2 MPH (2 knots; 1.0 m/s)
Visibility: 6 or more miles (10+ km)
Ceiling: 1600 feet AGL
Clouds: broken clouds at 1600 feet AGL
Weather: no significant weather observed at this time

METAR text: SVMI 252000Z 07003KT 9999 BKN016 23/22 Q1008
Conditions at: SVMI (CARACAS/S. BOLIV, VE) observed 2000 UTC 25 April 2019
Temperature: 23.0°C (73°F)
Dewpoint: 22.0°C (72°F) [RH = 94%]
Pressure (altimeter): 29.76 inches Hg (1008.0 mb)
Winds: from the ENE (70 degrees) at 3 MPH (3 knots; 1.5 m/s)
Visibility: 6 or more miles (10+ km)
Ceiling: 1600 feet AGL
Clouds: broken clouds at 1600 feet AGL
Weather: no significant weather observed at this time

METAR text: SVMI 251900Z 09005KT 9999 BKN016 24/23 Q1009
Conditions at: SVMI (CARACAS/S. BOLIV, VE) observed 1900 UTC 25 April 2019
Temperature: 24.0°C (75°F)
Dewpoint: 23.0°C (73°F) [RH = 94%]
Pressure (altimeter): 29.79 inches Hg (1009.0 mb)
Winds: from the E (90 degrees) at 6 MPH (5 knots; 2.6 m/s)
Visibility: 6 or more miles (10+ km)
Ceiling: 1600 feet AGL
Clouds: broken clouds at 1600 feet AGL
Weather: no significant weather observed at this time

METAR text: SVMI 251800Z 09003KT 9999 BKN016 24/23 Q10109
Conditions at: SVMI (CARACAS/S. BOLIV, VE) observed 1800 UTC 25 April 2019
Temperature: 24.0°C (75°F)
Dewpoint: 23.0°C (73°F) [RH = 94%]
Pressure (altimeter): missing
Winds: from the E (90 degrees) at 3 MPH (3 knots; 1.5 m/s)
Visibility: 6 or more miles (10+ km)
Ceiling: 1600 feet AGL
Clouds: broken clouds at 1600 feet AGL
Weather: no significant weather observed at this time

METAR text: SVMI 251600Z 09002KT 9999 BKN016 23/22 Q1008
Conditions at: SVMI (CARACAS/S. BOLIV, VE) observed 1600 UTC 25 April 2019
Temperature: 23.0°C (73°F)
Dewpoint: 22.0°C (72°F) [RH = 94%]
Pressure (altimeter): 29.76 inches Hg (1008.0 mb)
Winds: from the E (90 degrees) at 2 MPH (2 knots; 1.0 m/s)
Visibility: 6 or more miles (10+ km)
Ceiling: 1600 feet AGL
Clouds: broken clouds at 1600 feet AGL
Weather: no significant weather observed at this time

METAR text: SVMI 251500Z 07004KT 9999 BKN016 24/22 Q1009
Conditions at: SVMI (CARACAS/S. BOLIV, VE) observed 1500 UTC 25 April 2019
Temperature: 24.0°C (75°F)
Dewpoint: 22.0°C (72°F) [RH = 89%]
Pressure (altimeter): 29.79 inches Hg (1009.0 mb)
Winds: from the ENE (70 degrees) at 5 MPH (4 knots; 2.1 m/s)
Visibility: 6 or more miles (10+ km)
Ceiling: 1600 feet AGL
Clouds: broken clouds at 1600 feet AGL
Weather: no significant weather observed at this time

METAR text: SVMI 251400Z 09003KT 9999 BKN016 24/22 Q1009
Conditions at: SVMI (CARACAS/S. BOLIV, VE) observed 1400 UTC 25 April 2019
Temperature: 24.0°C (75°F)
Dewpoint: 22.0°C (72°F) [RH = 89%]
Pressure (altimeter): 29.79 inches Hg (1009.0 mb)
Winds: from the E (90 degrees) at 3 MPH (3 knots; 1.5 m/s)
Visibility: 6 or more miles (10+ km)
Ceiling: 1600 feet AGL
Clouds: broken clouds at 1600 feet AGL
Weather: no significant weather observed at this time

METAR text: SVMI 251300Z 07002KT 9999 BKN016 24/22 Q1010
Conditions at: SVMI (CARACAS/S. BOLIV, VE) observed 1300 UTC 25 April 2019
Temperature: 24.0°C (75°F)
Dewpoint: 22.0°C (72°F) [RH = 89%]
Pressure (altimeter): 29.82 inches Hg (1010.0 mb)
Winds: from the ENE (70 degrees) at 2 MPH (2 knots; 1.0 m/s)
Visibility: 6 or more miles (10+ km)
Ceiling: 1600 feet AGL
Clouds: broken clouds at 1600 feet AGL
Weather: no significant weather observed at this time

METAR text: SVMI 251200Z 070003KT 9999 BKN016 24/22 Q1011
Conditions at: SVMI (CARACAS/S. BOLIV, VE) observed 1200 UTC 25 April 2019
Temperature: 24.0°C (75°F)
Dewpoint: 22.0°C (72°F) [RH = 89%]
Pressure (altimeter): 29.85 inches Hg (1011.0 mb)
Winds: from the ENE (70 degrees) at 3 MPH (3 knots; 1.5 m/s)
Visibility: 6 or more miles (10+ km)
Ceiling: 1600 feet AGL
Clouds: broken clouds at 1600 feet AGL
Weather: no significant weather observed at this time

METAR text: SVMI 251100Z 00000KT 9999 SCT016 23/22 Q1009
Conditions at: SVMI (CARACAS/S. BOLIV, VE) observed 1100 UTC 25 April 2019
Temperature: 23.0°C (73°F)
Dewpoint: 22.0°C (72°F) [RH = 94%]
Pressure (altimeter): 29.79 inches Hg (1009.0 mb)
Winds: calm
Visibility: 6 or more miles (10+ km)
Ceiling: at least 12,000 feet AGL
Clouds: scattered clouds at 1600 feet AGL
Weather: no significant weather observed at this time

METAR text: SVMI 251000Z 00000KT 9999 BKN016 22/21 Q1008
Conditions at: SVMI (CARACAS/S. BOLIV, VE) observed 1000 UTC 25 April 2019
Temperature: 22.0°C (72°F)
Dewpoint: 21.0°C (70°F) [RH = 94%]
Pressure (altimeter): 29.76 inches Hg (1008.0 mb)
Winds: calm
Visibility: 6 or more miles (10+ km)
Ceiling: 1600 feet AGL
Clouds: broken clouds at 1600 feet AGL
Weather: no significant weather observed at this time

METAR text: SVMI 250900Z 00000KT 9999 BKN016 22/20 Q1008
Conditions at: SVMI (CARACAS/S. BOLIV, VE) observed 0900 UTC 25 April 2019
Temperature: 22.0°C (72°F)
Dewpoint: 20.0°C (68°F) [RH = 88%]
Pressure (altimeter): 29.76 inches Hg (1008.0 mb)
Winds: calm
Visibility: 6 or more miles (10+ km)
Ceiling: 1600 feet AGL
Clouds: broken clouds at 1600 feet AGL
Weather: no significant weather observed at this time

METAR text: SVMI 250800Z 00000KT 9999 BKN016 19/22 Q1009
Conditions at: SVMI (CARACAS/S. BOLIV, VE) observed 0800 UTC 25 April 2019
Temperature: 19.0°C (66°F)
Dewpoint: 22.0°C (72°F) [RH = 120%]
Pressure (altimeter): 29.79 inches Hg (1009.0 mb)
Winds: calm
Visibility: 6 or more miles (10+ km)
Ceiling: 1600 feet AGL
Clouds: broken clouds at 1600 feet AGL
Weather: no significant weather observed at this time

METAR text: SVMI 250700Z 09002KT 9999 BKN016 19/20 Q1009
Conditions at: SVMI (CARACAS/S. BOLIV, VE) observed 0700 UTC 25 April 2019
Temperature: 19.0°C (66°F)
Dewpoint: 20.0°C (68°F) [RH = 106%]
Pressure (altimeter): 29.79 inches Hg (1009.0 mb)
Winds: from the E (90 degrees) at 2 MPH (2 knots; 1.0 m/s)
Visibility: 6 or more miles (10+ km)
Ceiling: 1600 feet AGL
Clouds: broken clouds at 1600 feet AGL
Weather: no significant weather observed at this time

METAR text: SVMI 250600Z 00000KT 9999 BKN016 19/23 Q1010
Conditions at: SVMI (CARACAS/S. BOLIV, VE) observed 0600 UTC 25 April 2019
Temperature: 19.0°C (66°F)
Dewpoint: 23.0°C (73°F) [RH = 128%]
Pressure (altimeter): 29.82 inches Hg (1010.0 mb)
Winds: calm
Visibility: 6 or more miles (10+ km)
Ceiling: 1600 feet AGL
Clouds: broken clouds at 1600 feet AGL
Weather: no significant weather observed at this time

METAR text: SVMI 250500Z 00000KT 9999 BKN016 20/22 Q1010
Conditions at: SVMI (CARACAS/S. BOLIV, VE) observed 0500 UTC 25 April 2019
Temperature: 20.0°C (68°F)
Dewpoint: 22.0°C (72°F) [RH = 113%]
Pressure (altimeter): 29.82 inches Hg (1010.0 mb)
Winds: calm
Visibility: 6 or more miles (10+ km)
Ceiling: 1600 feet AGL
Clouds: broken clouds at 1600 feet AGL
Weather: no significant weather observed at this time

METAR text: SVMI 250400Z 00000KT 9999 BKN016 20/21 Q1010
Conditions at: SVMI (CARACAS/S. BOLIV, VE) observed 0400 UTC 25 April 2019
Temperature: 20.0°C (68°F)
Dewpoint: 21.0°C (70°F) [RH = 106%]
Pressure (altimeter): 29.82 inches Hg (1010.0 mb)
Winds: calm
Visibility: 6 or more miles (10+ km)
Ceiling: 1600 feet AGL
Clouds: broken clouds at 1600 feet AGL
Weather: no significant weather observed at this time

METAR text: SVMI 250300Z 00000KT 9999 BKN016 22/21 Q1010
Conditions at: SVMI (CARACAS/S. BOLIV, VE) observed 0300 UTC 25 April 2019
Temperature: 22.0°C (72°F)
Dewpoint: 21.0°C (70°F) [RH = 94%]
Pressure (altimeter): 29.82 inches Hg (1010.0 mb)
Winds: calm
Visibility: 6 or more miles (10+ km)
Ceiling: 1600 feet AGL
Clouds: broken clouds at 1600 feet AGL
Weather: no significant weather observed at this time

METAR text: SVMI 242300Z 00000KT 9999 BKN016 22/23 Q1008
Conditions at: SVMI (CARACAS/S. BOLIV, VE) observed 2300 UTC 24 April 2019
Temperature: 22.0°C (72°F)
Dewpoint: 23.0°C (73°F) [RH = 106%]
Pressure (altimeter): 29.76 inches Hg (1008.0 mb)
Winds: calm
Visibility: 6 or more miles (10+ km)
Ceiling: 1600 feet AGL
Clouds: broken clouds at 1600 feet AGL
Weather: no significant weather observed at this time

METAR text: SVMI 242200Z 00000KT 9999 BKN016 23/22 Q1009
Conditions at: SVMI (CARACAS/S. BOLIV, VE) observed 2200 UTC 24 April 2019
Temperature: 23.0°C (73°F)
Dewpoint: 22.0°C (72°F) [RH = 94%]
Pressure (altimeter): 29.79 inches Hg (1009.0 mb)
Winds: calm
Visibility: 6 or more miles (10+ km)
Ceiling: 1600 feet AGL
Clouds: broken clouds at 1600 feet AGL
Weather: no significant weather observed at this time

METAR text: SVMI 242100Z 00000KT 9999 BKN016 24/22 Q1010
Conditions at: SVMI (CARACAS/S. BOLIV, VE) observed 2100 UTC 24 April 2019
Temperature: 24.0°C (75°F)
Dewpoint: 22.0°C (72°F) [RH = 89%]
Pressure (altimeter): 29.82 inches Hg (1010.0 mb)
Winds: calm
Visibility: 6 or more miles (10+ km)
Ceiling: 1600 feet AGL
Clouds: broken clouds at 1600 feet AGL
Weather: no significant weather observed at this time

METAR text: SVMI 242000Z 00000KT 9999 BKN016 24/22 Q1011
Conditions at: SVMI (CARACAS/S. BOLIV, VE) observed 2000 UTC 24 April 2019
Temperature: 24.0°C (75°F)
Dewpoint: 22.0°C (72°F) [RH = 89%]
Pressure (altimeter): 29.85 inches Hg (1011.0 mb)
Winds: calm
Visibility: 6 or more miles (10+ km)
Ceiling: 1600 feet AGL
Clouds: broken clouds at 1600 feet AGL
Weather: no significant weather observed at this time

METAR text: SVMI 241900Z 00000KT 9999 BKN016 24/22 Q1010
Conditions at: SVMI (CARACAS/S. BOLIV, VE) observed 1900 UTC 24 April 2019
Temperature: 24.0°C (75°F)
Dewpoint: 22.0°C (72°F) [RH = 89%]
Pressure (altimeter): 29.82 inches Hg (1010.0 mb)
Winds: calm
Visibility: 6 or more miles (10+ km)
Ceiling: 1600 feet AGL
Clouds: broken clouds at 1600 feet AGL
Weather: no significant weather observed at this time

METAR text: SVMI 241800Z 00000KT 9999 BKN016 25/20 Q1011
Conditions at: SVMI (CARACAS/S. BOLIV, VE) observed 1800 UTC 24 April 2019
Temperature: 25.0°C (77°F)
Dewpoint: 20.0°C (68°F) [RH = 74%]
Pressure (altimeter): 29.85 inches Hg (1011.0 mb)
Winds: calm
Visibility: 6 or more miles (10+ km)
Ceiling: 1600 feet AGL
Clouds: broken clouds at 1600 feet AGL
Weather: no significant weather observed at this time

Forecast for: SVMI (CARACAS/S. BOLIV, VE)
Text: TAF SVMI 260400Z 2606/2706 09005KT 9999 BKN016 TX29/1800Z TN20/0900Z
Forecast period: 0600 UTC 26 April 2019 to 0600 UTC 27 April 2019
Forecast type: FROM: standard forecast or significant change
Winds: from the E (90 degrees) at 6 MPH (5 knots; 2.6 m/s)
Visibility: 6 or more miles 10+ km)
Ceiling: 1600 feet AGL
Clouds: broken clouds at 1600 feet AGL
Weather: no significant weather forecast for this period
Text: TEMPO 2606/2610 00000KT 9000 -DZ BKN016
Forecast period: 0600 to 1000 UTC 26 April 2019
Forecast type: TEMPORARY: The following changes expected for less than half the time period
Winds: calm
Visibility: 6 miles (9 km)
Ceiling: 1600 feet AGL
Clouds: broken clouds at 1600 feet AGL
Weather: -DZ  (light drizzle)